Time;durP1;ratioP1;P1;durP2;ratioP2;P2;SDS_P1;SDS_P2;PMS_P1;PMS_P2;Temp;Humidity;BMP_temperature;BMP_pressure;BME280_temperature;BME280_humidity;BME280_pressure;Samples;Min_cycle;Max_cycle;Signal;HPM_P1;HPM_P2
2021/01/22 00:00:48;;;;;;;2.10;0.75;;;;;;;;;;5089691;28;20198;-46
2021/01/22 00:03:14;;;;;;;1.17;1.00;;;;;;;;;;5086063;28;20588;-46
2021/01/22 00:05:40;;;;;;;1.10;0.95;;;;;;;;;;5078043;28;20224;-46
2021/01/22 00:08:06;;;;;;;2.85;0.90;;;;;;;;;;5080622;28;20274;-47
2021/01/22 00:10:32;;;;;;;0.85;0.85;;;;;;;;;;5072817;28;20179;-46
2021/01/22 00:12:58;;;;;;;0.65;0.60;;;;;;;;;;5078216;28;20175;-46
2021/01/22 00:15:24;;;;;;;0.80;0.80;;;;;;;;;;5076639;28;20510;-46
2021/01/22 00:17:50;;;;;;;1.00;0.90;;;;;;;;;;5079622;28;20178;-46
2021/01/22 00:20:16;;;;;;;1.08;0.85;;;;;;;;;;5076440;28;20193;-46
2021/01/22 00:22:42;;;;;;;1.20;0.95;;;;;;;;;;5091380;28;20545;-46
2021/01/22 00:25:08;;;;;;;0.70;0.68;;;;;;;;;;5096448;28;20181;-46
2021/01/22 00:27:34;;;;;;;1.02;0.80;;;;;;;;;;5096347;28;20231;-46
2021/01/22 00:30:00;;;;;;;0.70;0.70;;;;;;;;;;5095347;28;20197;-46
2021/01/22 00:32:26;;;;;;;0.80;0.73;;;;;;;;;;5086069;28;20577;-46
2021/01/22 00:34:52;;;;;;;1.80;0.73;;;;;;;;;;5091981;28;20256;-46
2021/01/22 00:37:18;;;;;;;0.75;0.70;;;;;;;;;;5095995;28;20209;-46
2021/01/22 00:39:44;;;;;;;0.75;0.68;;;;;;;;;;5096820;28;20202;-46
2021/01/22 00:42:10;;;;;;;2.38;0.90;;;;;;;;;;5092829;28;20225;-46
2021/01/22 00:44:36;;;;;;;0.50;0.50;;;;;;;;;;5090346;28;20573;-46
2021/01/22 00:47:02;;;;;;;1.52;0.80;;;;;;;;;;5096412;28;20502;-46
2021/01/22 00:49:28;;;;;;;1.67;0.55;;;;;;;;;;5087193;28;20196;-46
2021/01/22 00:51:54;;;;;;;2.95;0.60;;;;;;;;;;5108909;28;20196;-46
2021/01/22 00:54:20;;;;;;;2.53;0.70;;;;;;;;;;5089070;28;20178;-46
2021/01/22 00:56:46;;;;;;;2.10;0.90;;;;;;;;;;5091629;28;20209;-46
2021/01/22 00:59:12;;;;;;;1.05;0.70;;;;;;;;;;5075700;28;20289;-46
2021/01/22 01:01:38;;;;;;;0.68;0.68;;;;;;;;;;5083793;28;20517;-46
2021/01/22 01:04:04;;;;;;;0.60;0.60;;;;;;;;;;5093603;28;20186;-47
2021/01/22 01:06:30;;;;;;;1.50;0.70;;;;;;;;;;5075689;28;20265;-46
2021/01/22 01:08:56;;;;;;;0.70;0.70;;;;;;;;;;5076029;28;20257;-46
2021/01/22 01:11:22;;;;;;;1.30;0.85;;;;;;;;;;5091477;28;20197;-46
2021/01/22 01:13:48;;;;;;;1.02;0.60;;;;;;;;;;5079219;28;20248;-47
2021/01/22 01:16:14;;;;;;;0.75;0.75;;;;;;;;;;5074940;28;20225;-47
2021/01/22 01:18:40;;;;;;;0.77;0.57;;;;;;;;;;5087738;28;20229;-46
2021/01/22 01:21:06;;;;;;;0.70;0.70;;;;;;;;;;5110556;28;20189;-46
2021/01/22 01:23:32;;;;;;;0.75;0.75;;;;;;;;;;5091189;28;20208;-46
2021/01/22 01:25:58;;;;;;;0.70;0.70;;;;;;;;;;5093459;28;20281;-46
2021/01/22 01:28:24;;;;;;;0.68;0.50;;;;;;;;;;5090326;28;20549;-47
2021/01/22 01:30:50;;;;;;;0.70;0.70;;;;;;;;;;5076462;28;20182;-47
2021/01/22 01:33:16;;;;;;;1.00;0.60;;;;;;;;;;5085648;28;20559;-47
2021/01/22 01:35:42;;;;;;;1.13;0.73;;;;;;;;;;5094381;28;20225;-46
2021/01/22 01:38:08;;;;;;;1.55;0.73;;;;;;;;;;5095218;28;20453;-46
2021/01/22 01:40:34;;;;;;;0.80;0.65;;;;;;;;;;5094915;28;20235;-46
2021/01/22 01:43:00;;;;;;;0.65;0.65;;;;;;;;;;5081968;28;20173;-46
2021/01/22 01:45:26;;;;;;;0.80;0.52;;;;;;;;;;5094492;28;20192;-46
2021/01/22 01:47:52;;;;;;;2.50;0.63;;;;;;;;;;5095128;28;20456;-46
2021/01/22 01:50:18;;;;;;;0.98;0.70;;;;;;;;;;5107356;28;20185;-46
2021/01/22 01:52:44;;;;;;;0.73;0.65;;;;;;;;;;5096275;28;20658;-46
2021/01/22 01:55:10;;;;;;;0.68;0.68;;;;;;;;;;5080069;28;20184;-46
2021/01/22 01:57:36;;;;;;;0.50;0.50;;;;;;;;;;5077822;28;20206;-47
2021/01/22 02:00:04;;;;;;;0.50;0.50;;;;;;;;;;5074816;28;20198;-47
2021/01/22 02:02:30;;;;;;;0.55;0.50;;;;;;;;;;5079328;28;20200;-47
2021/01/22 02:04:58;;;;;;;0.45;0.45;;;;;;;;;;5091418;28;20182;-45
2021/01/22 02:07:24;;;;;;;1.25;0.70;;;;;;;;;;5080029;28;20186;-46
2021/01/22 02:09:50;;;;;;;0.90;0.50;;;;;;;;;;5093597;28;20481;-46
2021/01/22 02:12:17;;;;;;;0.60;0.60;;;;;;;;;;5089047;28;20240;-46
2021/01/22 02:14:44;;;;;;;0.63;0.55;;;;;;;;;;5094228;28;20185;-46
2021/01/22 02:17:10;;;;;;;1.17;0.50;;;;;;;;;;5093115;28;20219;-46
2021/01/22 02:19:54;;;;;;;0.40;0.40;;;;;;;;;;5098591;28;20272;-46
2021/01/22 02:22:23;;;;;;;0.60;0.60;;;;;;;;;;5101260;28;20186;-46
2021/01/22 02:24:50;;;;;;;0.57;0.57;;;;;;;;;;5081833;28;20205;-46
2021/01/22 02:27:16;;;;;;;0.75;0.70;;;;;;;;;;5073806;28;20191;-46
2021/01/22 02:29:42;;;;;;;0.40;0.40;;;;;;;;;;5082687;28;20198;-47
2021/01/22 02:32:09;;;;;;;0.55;0.55;;;;;;;;;;5087415;28;20520;-46
2021/01/22 02:34:37;;;;;;;0.57;0.50;;;;;;;;;;5073261;28;20186;-46
2021/01/22 02:37:04;;;;;;;0.85;0.50;;;;;;;;;;5079772;28;20469;-46
2021/01/22 02:39:35;;;;;;;0.60;0.60;;;;;;;;;;5093672;28;20184;-47
2021/01/22 02:42:02;;;;;;;0.60;0.60;;;;;;;;;;5091843;28;20177;-46
2021/01/22 02:44:29;;;;;;;0.70;0.50;;;;;;;;;;5090737;28;20190;-46
2021/01/22 02:46:57;;;;;;;1.02;0.52;;;;;;;;;;5094066;28;20193;-46
2021/01/22 02:49:23;;;;;;;0.50;0.50;;;;;;;;;;5096254;28;20259;-47
2021/01/22 02:51:49;;;;;;;1.40;0.50;;;;;;;;;;5078717;28;20182;-47
2021/01/22 02:54:15;;;;;;;0.65;0.60;;;;;;;;;;5080822;28;20281;-46
2021/01/22 02:56:41;;;;;;;0.40;0.40;;;;;;;;;;5079512;28;20288;-46
2021/01/22 02:59:12;;;;;;;0.50;0.50;;;;;;;;;;5074506;28;20717;-46
2021/01/22 03:01:43;;;;;;;0.50;0.50;;;;;;;;;;5076044;28;20249;-46
2021/01/22 03:04:12;;;;;;;0.50;0.50;;;;;;;;;;5080710;28;20459;-46
2021/01/22 03:06:44;;;;;;;0.50;0.50;;;;;;;;;;5090938;28;20186;-47
2021/01/22 03:09:13;;;;;;;0.47;0.47;;;;;;;;;;5093418;28;20182;-46
2021/01/22 03:11:40;;;;;;;0.60;0.60;;;;;;;;;;5092246;28;20204;-46
2021/01/22 03:14:07;;;;;;;0.40;0.40;;;;;;;;;;5093033;28;20231;-47
2021/01/22 03:16:34;;;;;;;0.40;0.40;;;;;;;;;;5083493;28;20202;-47
2021/01/22 03:19:01;;;;;;;0.50;0.50;;;;;;;;;;5084120;28;20203;-46
2021/01/22 03:21:27;;;;;;;0.85;0.50;;;;;;;;;;5110577;28;20220;-46
2021/01/22 03:23:53;;;;;;;0.50;0.50;;;;;;;;;;5073228;28;20182;-46
2021/01/22 03:26:20;;;;;;;0.90;0.50;;;;;;;;;;5079675;28;20213;-45
2021/01/22 03:28:46;;;;;;;0.30;0.30;;;;;;;;;;5093389;28;20476;-47
2021/01/22 03:31:12;;;;;;;0.80;0.40;;;;;;;;;;5093248;28;20828;-46
2021/01/22 03:33:38;;;;;;;0.45;0.45;;;;;;;;;;5075993;28;20190;-46
2021/01/22 03:36:05;;;;;;;0.50;0.50;;;;;;;;;;5077415;28;20196;-46
2021/01/22 03:38:31;;;;;;;0.32;0.32;;;;;;;;;;5086565;28;20225;-47
2021/01/22 03:40:57;;;;;;;0.35;0.35;;;;;;;;;;5073505;28;20541;-45
2021/01/22 03:43:23;;;;;;;0.32;0.32;;;;;;;;;;5073419;28;20193;-46
2021/01/22 03:45:49;;;;;;;0.40;0.40;;;;;;;;;;5075143;28;20308;-46
2021/01/22 03:48:15;;;;;;;0.50;0.50;;;;;;;;;;5093247;28;20189;-46
2021/01/22 03:50:41;;;;;;;0.52;0.52;;;;;;;;;;5092737;28;20193;-46
2021/01/22 03:53:07;;;;;;;0.50;0.50;;;;;;;;;;5081728;28;20192;-46
2021/01/22 03:55:33;;;;;;;0.50;0.50;;;;;;;;;;5076258;28;20206;-46
2021/01/22 03:57:59;;;;;;;0.40;0.40;;;;;;;;;;5092448;28;20298;-46
2021/01/22 04:00:25;;;;;;;0.40;0.40;;;;;;;;;;5095275;28;20182;-46
2021/01/22 04:02:51;;;;;;;0.40;0.40;;;;;;;;;;5090315;28;20196;-46
2021/01/22 04:05:17;;;;;;;0.30;0.30;;;;;;;;;;5096394;28;20460;-46
2021/01/22 04:07:43;;;;;;;0.45;0.45;;;;;;;;;;5079094;28;20217;-46
2021/01/22 04:10:09;;;;;;;0.28;0.28;;;;;;;;;;5076845;28;20488;-46
2021/01/22 04:12:35;;;;;;;0.50;0.50;;;;;;;;;;5084938;28;20212;-46
2021/01/22 04:15:02;;;;;;;0.40;0.40;;;;;;;;;;5096422;28;20174;-46
2021/01/22 04:17:28;;;;;;;0.40;0.40;;;;;;;;;;5094903;28;20232;-46
2021/01/22 04:19:54;;;;;;;1.00;0.40;;;;;;;;;;5104144;28;20185;-46
2021/01/22 04:22:20;;;;;;;0.57;0.50;;;;;;;;;;5108211;28;20186;-46
2021/01/22 04:24:46;;;;;;;0.38;0.38;;;;;;;;;;5096503;28;20181;-46
2021/01/22 04:27:12;;;;;;;0.50;0.40;;;;;;;;;;5083153;28;20240;-46
2021/01/22 04:29:38;;;;;;;0.30;0.30;;;;;;;;;;5076732;28;20187;-46
2021/01/22 04:32:04;;;;;;;1.27;0.45;;;;;;;;;;5078243;28;20592;-46
2021/01/22 04:34:30;;;;;;;0.40;0.40;;;;;;;;;;5075810;28;20799;-46
2021/01/22 04:36:56;;;;;;;0.50;0.50;;;;;;;;;;5091607;28;20255;-46
2021/01/22 04:39:22;;;;;;;0.52;0.50;;;;;;;;;;5096520;28;20162;-46
2021/01/22 04:41:48;;;;;;;0.40;0.40;;;;;;;;;;5094987;28;20453;-46
2021/01/22 04:44:14;;;;;;;0.30;0.30;;;;;;;;;;5095876;28;20213;-46
2021/01/22 04:46:41;;;;;;;0.50;0.50;;;;;;;;;;5089589;28;20218;-46
2021/01/22 04:49:07;;;;;;;0.40;0.40;;;;;;;;;;5087015;28;20193;-47
2021/01/22 04:51:35;;;;;;;0.52;0.52;;;;;;;;;;5087087;28;20618;-47
2021/01/22 04:54:04;;;;;;;0.90;0.50;;;;;;;;;;5105319;28;20213;-46
2021/01/22 04:56:30;;;;;;;1.55;0.47;;;;;;;;;;5081051;28;20465;-46
2021/01/22 04:58:57;;;;;;;0.50;0.47;;;;;;;;;;5102519;28;20474;-46
2021/01/22 05:01:24;;;;;;;0.68;0.50;;;;;;;;;;5100037;28;20207;-46
2021/01/22 05:03:50;;;;;;;0.55;0.50;;;;;;;;;;5086767;28;20177;-47
2021/01/22 05:06:16;;;;;;;0.55;0.50;;;;;;;;;;5075217;28;20198;-46
2021/01/22 05:08:42;;;;;;;0.50;0.50;;;;;;;;;;5075964;28;20186;-46
2021/01/22 05:11:08;;;;;;;0.30;0.30;;;;;;;;;;5075381;28;20204;-46
2021/01/22 05:13:36;;;;;;;0.50;0.50;;;;;;;;;;5077013;28;20196;-46
2021/01/22 05:16:09;;;;;;;0.55;0.55;;;;;;;;;;5080650;28;20806;-46
2021/01/22 05:18:35;;;;;;;2.15;0.63;;;;;;;;;;5095411;28;20219;-46
2021/01/22 05:21:11;;;;;;;2.72;0.90;;;;;;;;;;5112333;28;20181;-46
2021/01/22 05:23:38;;;;;;;13.70;3.60;;;;;;;;;;5091718;28;20444;-47
2021/01/22 05:26:10;;;;;;;14.48;3.45;;;;;;;;;;5095162;28;20170;-47
2021/01/22 05:28:37;;;;;;;11.85;3.15;;;;;;;;;;5093420;28;20770;-47
2021/01/22 05:31:03;;;;;;;10.75;3.00;;;;;;;;;;5075469;28;20593;-47
2021/01/22 05:33:29;;;;;;;14.18;3.35;;;;;;;;;;5075833;28;20578;-47
2021/01/22 05:35:55;;;;;;;8.82;2.42;;;;;;;;;;5074144;28;20656;-47
2021/01/22 05:38:40;;;;;;;11.70;3.05;;;;;;;;;;5074568;28;20265;-47
2021/01/22 05:41:06;;;;;;;7.50;2.10;;;;;;;;;;5075071;28;20194;-47
2021/01/22 05:43:36;;;;;;;5.55;1.83;;;;;;;;;;5079803;28;20186;-46
2021/01/22 05:46:02;;;;;;;8.90;2.05;;;;;;;;;;5080128;28;20182;-47
2021/01/22 05:48:28;;;;;;;8.75;2.28;;;;;;;;;;5095368;28;20194;-47
2021/01/22 05:50:58;;;;;;;8.73;2.45;;;;;;;;;;5075150;28;20197;-47
2021/01/22 05:53:24;;;;;;;8.88;2.47;;;;;;;;;;5080392;28;20194;-47
2021/01/22 05:56:10;;;;;;;8.50;2.35;;;;;;;;;;5074281;28;20497;-47
2021/01/22 05:58:37;;;;;;;5.03;1.95;;;;;;;;;;5075652;28;20436;-47
2021/01/22 06:01:07;;;;;;;7.07;2.25;;;;;;;;;;5073771;28;20171;-47
2021/01/22 06:03:33;;;;;;;7.30;2.08;;;;;;;;;;5076569;28;20557;-47
2021/01/22 06:05:59;;;;;;;8.45;2.05;;;;;;;;;;5073855;28;20189;-47
2021/01/22 06:08:25;;;;;;;7.60;2.25;;;;;;;;;;5074286;28;20396;-47
2021/01/22 06:10:52;;;;;;;6.07;2.17;;;;;;;;;;5094076;28;20212;-47
2021/01/22 06:13:24;;;;;;;6.95;1.88;;;;;;;;;;5088238;28;20193;-46
2021/01/22 06:15:50;;;;;;;5.05;1.75;;;;;;;;;;5083659;28;20189;-47
2021/01/22 06:18:20;;;;;;;4.82;1.73;;;;;;;;;;5094226;28;20223;-46
2021/01/22 06:20:47;;;;;;;4.28;1.92;;;;;;;;;;5095889;28;20188;-46
2021/01/22 06:23:14;;;;;;;6.43;1.90;;;;;;;;;;5085002;28;20178;-46
2021/01/22 06:25:44;;;;;;;6.20;1.95;;;;;;;;;;5073815;28;20179;-47
2021/01/22 06:28:11;;;;;;;6.15;1.85;;;;;;;;;;5085876;28;20227;-46
2021/01/22 06:30:37;;;;;;;3.92;1.70;;;;;;;;;;5094435;28;20249;-47
2021/01/22 06:33:04;;;;;;;6.95;2.13;;;;;;;;;;5089519;28;20193;-47
2021/01/22 06:35:32;;;;;;;6.28;1.92;;;;;;;;;;5093256;28;20184;-46
2021/01/22 06:37:58;;;;;;;3.40;1.42;;;;;;;;;;5093229;28;20305;-46
2021/01/22 06:40:25;;;;;;;4.80;1.63;;;;;;;;;;5093217;28;20211;-46
2021/01/22 06:42:51;;;;;;;3.30;1.35;;;;;;;;;;5083105;28;20201;-46
2021/01/22 06:45:21;;;;;;;4.20;1.77;;;;;;;;;;5084602;28;20566;-47
2021/01/22 06:48:00;;;;;;;5.80;1.58;;;;;;;;;;5076822;28;20588;-46
2021/01/22 06:50:27;;;;;;;3.45;1.25;;;;;;;;;;5093643;28;20185;-46
2021/01/22 06:53:05;;;;;;;3.47;1.50;;;;;;;;;;5086199;28;20453;-46
2021/01/22 06:55:31;;;;;;;3.53;1.30;;;;;;;;;;5082648;28;20186;-46
2021/01/22 06:58:16;;;;;;;3.90;1.50;;;;;;;;;;5093647;28;20205;-46
2021/01/22 07:00:42;;;;;;;2.80;1.42;;;;;;;;;;5076819;28;20178;-46
2021/01/22 07:03:08;;;;;;;2.35;1.30;;;;;;;;;;5092700;28;20178;-47
2021/01/22 07:05:37;;;;;;;3.60;1.23;;;;;;;;;;5081931;28;20182;-46
2021/01/22 07:08:03;;;;;;;2.80;1.23;;;;;;;;;;5074853;28;20589;-47
2021/01/22 07:10:48;;;;;;;2.65;1.30;;;;;;;;;;5087525;28;20574;-47
2021/01/22 07:13:32;;;;;;;2.40;1.20;;;;;;;;;;5089979;28;20186;-46
2021/01/22 07:16:05;;;;;;;3.35;1.50;;;;;;;;;;5087083;28;20292;-46
2021/01/22 07:18:34;;;;;;;3.38;1.25;;;;;;;;;;5083270;28;20526;-46
2021/01/22 07:21:38;;;;;;;3.67;1.45;;;;;;;;;;5081023;28;20224;-46
2021/01/22 07:24:05;;;;;;;4.22;1.50;;;;;;;;;;5047415;28;20257;-46
2021/01/22 07:26:34;;;;;;;4.32;1.42;;;;;;;;;;5087326;28;20283;-45
2021/01/22 07:29:13;;;;;;;5.07;1.30;;;;;;;;;;5097727;28;20291;-46
2021/01/22 07:31:49;;;;;;;3.65;1.40;;;;;;;;;;5079898;28;20196;-46
2021/01/22 07:34:34;;;;;;;2.85;1.00;;;;;;;;;;5080603;28;20290;-46
2021/01/22 07:37:00;;;;;;;3.90;1.42;;;;;;;;;;5082519;28;20648;-46
2021/01/22 07:39:28;;;;;;;2.45;1.00;;;;;;;;;;5095325;28;20269;-47
2021/01/22 07:42:06;;;;;;;2.85;1.48;;;;;;;;;;5095765;28;20190;-46
2021/01/22 07:44:32;;;;;;;2.10;1.00;;;;;;;;;;5095043;28;20201;-47
2021/01/22 07:46:58;;;;;;;3.15;0.98;;;;;;;;;;5095709;28;20584;-46
2021/01/22 07:49:24;;;;;;;3.22;1.10;;;;;;;;;;5094668;28;20181;-46
2021/01/22 07:51:50;;;;;;;3.50;1.10;;;;;;;;;;5095796;28;20260;-47
2021/01/22 07:54:16;;;;;;;3.42;1.40;;;;;;;;;;5095524;28;20560;-46
2021/01/22 07:56:42;;;;;;;3.17;1.30;;;;;;;;;;5088029;28;20248;-46
2021/01/22 07:59:11;;;;;;;2.65;1.10;;;;;;;;;;5076822;28;20178;-46
2021/01/22 08:01:36;;;;;;;2.88;1.35;;;;;;;;;;5089021;28;20194;-46
2021/01/22 08:04:06;;;;;;;3.25;1.10;;;;;;;;;;5096245;28;20174;-47
2021/01/22 08:06:45;;;;;;;1.90;1.10;;;;;;;;;;5096615;28;20611;-46
2021/01/22 08:09:16;;;;;;;2.40;1.30;;;;;;;;;;5096881;28;20575;-46
2021/01/22 08:11:43;;;;;;;3.25;1.63;;;;;;;;;;5096771;28;20656;-46
2021/01/22 08:14:09;;;;;;;2.28;1.08;;;;;;;;;;5080997;28;20218;-46
2021/01/22 08:16:36;;;;;;;2.70;1.30;;;;;;;;;;5075415;28;20233;-46
2021/01/22 08:19:03;;;;;;;2.83;1.10;;;;;;;;;;5084794;28;20184;-46
2021/01/22 08:21:30;;;;;;;4.40;1.50;;;;;;;;;;5116811;28;20181;-46
2021/01/22 08:23:57;;;;;;;3.40;1.20;;;;;;;;;;5116766;28;20218;-46
2021/01/22 08:26:23;;;;;;;2.65;1.08;;;;;;;;;;5116394;28;20177;-46
2021/01/22 08:28:51;;;;;;;3.30;1.83;;;;;;;;;;5116728;28;20238;-46
2021/01/22 08:31:18;;;;;;;2.15;1.17;;;;;;;;;;5116592;28;20205;-47
2021/01/22 08:33:44;;;;;;;1.60;1.08;;;;;;;;;;5094958;28;20219;-47
2021/01/22 08:36:10;;;;;;;2.15;1.20;;;;;;;;;;5084304;28;20210;-47
2021/01/22 08:38:37;;;;;;;1.75;0.90;;;;;;;;;;5078416;28;20190;-46
2021/01/22 08:41:03;;;;;;;1.42;1.10;;;;;;;;;;5093487;28;20178;-47
2021/01/22 08:43:29;;;;;;;3.67;1.45;;;;;;;;;;5095517;28;20223;-47
2021/01/22 08:46:06;;;;;;;2.13;1.05;;;;;;;;;;5086163;28;20190;-47
2021/01/22 08:48:32;;;;;;;2.33;1.20;;;;;;;;;;5075715;28;20178;-47
2021/01/22 08:50:59;;;;;;;2.75;1.30;;;;;;;;;;5108748;28;20177;-46
2021/01/22 08:53:25;;;;;;;1.20;1.00;;;;;;;;;;5094160;28;20197;-47
2021/01/22 08:56:08;;;;;;;1.77;1.20;;;;;;;;;;5082623;28;20193;-47
2021/01/22 08:58:34;;;;;;;1.90;1.20;;;;;;;;;;5095991;28;20432;-47
2021/01/22 09:01:00;;;;;;;2.67;1.23;;;;;;;;;;5096082;28;20181;-46
2021/01/22 09:03:27;;;;;;;2.67;1.38;;;;;;;;;;5095208;28;20188;-46
2021/01/22 09:05:54;;;;;;;2.88;1.20;;;;;;;;;;5088099;28;20204;-46
2021/01/22 09:08:22;;;;;;;1.92;1.30;;;;;;;;;;5082608;28;20581;-46
2021/01/22 09:10:52;;;;;;;2.28;1.50;;;;;;;;;;5081396;28;20203;-46
2021/01/22 09:13:23;;;;;;;1.15;0.80;;;;;;;;;;5088190;28;20182;-46
2021/01/22 09:16:02;;;;;;;1.95;1.33;;;;;;;;;;5080600;28;20179;-47
2021/01/22 09:18:28;;;;;;;2.63;1.30;;;;;;;;;;5077336;28;20182;-46
2021/01/22 09:21:13;;;;;;;2.83;1.48;;;;;;;;;;5089052;28;20437;-46
2021/01/22 09:23:39;;;;;;;1.92;1.15;;;;;;;;;;5076775;28;20186;-46
2021/01/22 09:26:06;;;;;;;1.20;1.10;;;;;;;;;;5084260;28;20554;-46
2021/01/22 09:28:32;;;;;;;7.20;1.80;;;;;;;;;;5077073;28;20232;-46
2021/01/22 09:30:57;;;;;;;4.95;1.38;;;;;;;;;;5076325;28;20184;-47
2021/01/22 09:33:23;;;;;;;2.60;1.20;;;;;;;;;;5076281;28;20186;-47
2021/01/22 09:35:49;;;;;;;2.97;1.52;;;;;;;;;;5081856;28;20225;-47
2021/01/22 09:38:15;;;;;;;2.15;1.30;;;;;;;;;;5077092;28;20174;-47
2021/01/22 09:40:41;;;;;;;6.15;1.75;;;;;;;;;;5073325;28;20190;-47
2021/01/22 09:43:08;;;;;;;2.25;1.10;;;;;;;;;;5074566;28;20241;-46
2021/01/22 09:45:34;;;;;;;4.30;1.30;;;;;;;;;;5078194;28;20186;-46
2021/01/22 09:48:00;;;;;;;3.47;1.30;;;;;;;;;;5088056;28;20260;-46
2021/01/22 09:50:25;;;;;;;2.90;1.23;;;;;;;;;;5079054;28;20826;-47
2021/01/22 09:52:51;;;;;;;4.68;1.75;;;;;;;;;;5088746;28;20177;-47
2021/01/22 09:55:18;;;;;;;2.67;0.98;;;;;;;;;;5074842;28;20612;-47
2021/01/22 09:57:44;;;;;;;1.70;1.33;;;;;;;;;;5091342;28;20267;-46
2021/01/22 10:00:12;;;;;;;2.08;1.10;;;;;;;;;;5093067;28;20182;-46
2021/01/22 10:02:38;;;;;;;2.63;1.05;;;;;;;;;;5092977;28;20205;-46
2021/01/22 10:05:05;;;;;;;1.63;1.00;;;;;;;;;;5092476;28;20239;-47
2021/01/22 10:07:31;;;;;;;2.20;1.20;;;;;;;;;;5080613;28;20428;-46
2021/01/22 10:09:57;;;;;;;1.90;1.05;;;;;;;;;;5074383;28;20256;-46
2021/01/22 10:12:23;;;;;;;2.75;1.00;;;;;;;;;;5076399;28;20240;-46
2021/01/22 10:14:49;;;;;;;3.85;1.20;;;;;;;;;;5084061;28;20189;-47
2021/01/22 10:17:17;;;;;;;2.25;1.00;;;;;;;;;;5073037;28;20198;-46
2021/01/22 10:19:44;;;;;;;2.88;1.02;;;;;;;;;;5066260;28;20470;-46
2021/01/22 10:22:12;;;;;;;1.23;0.88;;;;;;;;;;5086495;28;20181;-47
2021/01/22 10:24:38;;;;;;;2.17;0.90;;;;;;;;;;5062827;28;20227;-46
2021/01/22 10:27:10;;;;;;;3.15;1.20;;;;;;;;;;5079106;28;20197;-48
2021/01/22 10:29:36;;;;;;;2.58;1.00;;;;;;;;;;5075285;28;20614;-47
2021/01/22 10:32:03;;;;;;;2.00;1.00;;;;;;;;;;5060752;28;20194;-47
2021/01/22 10:34:30;;;;;;;1.25;0.70;;;;;;;;;;5070621;28;20186;-48
2021/01/22 10:36:56;;;;;;;1.63;1.00;;;;;;;;;;5074529;28;20258;-48
2021/01/22 10:39:23;;;;;;;1.88;1.02;;;;;;;;;;5080596;28;20185;-48
2021/01/22 10:41:50;;;;;;;2.17;1.20;;;;;;;;;;5091955;28;20174;-47
2021/01/22 10:44:16;;;;;;;2.40;1.02;;;;;;;;;;5068776;28;20205;-47
2021/01/22 10:47:15;;;;;;;0.95;0.88;;;;;;;;;;5060961;28;20195;-48
2021/01/22 10:49:41;;;;;;;2.47;1.30;;;;;;;;;;5041118;28;20591;-47
2021/01/22 10:52:07;;;;;;;1.00;0.80;;;;;;;;;;5073424;28;20183;-47
2021/01/22 10:54:33;;;;;;;0.98;0.80;;;;;;;;;;5081178;28;20204;-47
2021/01/22 10:56:59;;;;;;;0.85;0.82;;;;;;;;;;5092757;28;20250;-47
2021/01/22 10:59:25;;;;;;;1.52;1.00;;;;;;;;;;5079994;28;20181;-47
2021/01/22 11:01:51;;;;;;;1.33;0.88;;;;;;;;;;5073414;28;20255;-47
2021/01/22 11:04:17;;;;;;;0.90;0.82;;;;;;;;;;5080408;28;20173;-47
2021/01/22 11:06:43;;;;;;;1.52;0.98;;;;;;;;;;5110667;28;20652;-47
2021/01/22 11:09:09;;;;;;;2.03;1.00;;;;;;;;;;5093228;28;20196;-47
2021/01/22 11:11:35;;;;;;;1.60;0.90;;;;;;;;;;5092146;28;20294;-47
2021/01/22 11:14:01;;;;;;;1.35;0.90;;;;;;;;;;5090201;28;20186;-47
2021/01/22 11:16:27;;;;;;;1.50;0.82;;;;;;;;;;5072626;28;20201;-47
2021/01/22 11:18:53;;;;;;;0.93;0.80;;;;;;;;;;5093144;28;20227;-47
2021/01/22 11:21:19;;;;;;;1.90;0.77;;;;;;;;;;5106710;28;20185;-47
2021/01/22 11:23:45;;;;;;;0.88;0.88;;;;;;;;;;5090698;28;20272;-47
2021/01/22 11:26:11;;;;;;;1.23;0.90;;;;;;;;;;5072409;28;20186;-47
2021/01/22 11:28:37;;;;;;;0.90;0.82;;;;;;;;;;5090253;28;20503;-47
2021/01/22 11:31:03;;;;;;;2.65;0.85;;;;;;;;;;5093345;28;20189;-47
2021/01/22 11:33:29;;;;;;;2.10;0.93;;;;;;;;;;5092586;28;20479;-47
2021/01/22 11:35:55;;;;;;;3.65;1.05;;;;;;;;;;5073978;28;20190;-47
2021/01/22 11:38:21;;;;;;;4.57;1.23;;;;;;;;;;5087113;28;20182;-47
2021/01/22 11:40:47;;;;;;;3.08;1.40;;;;;;;;;;5093023;28;20182;-47
2021/01/22 11:43:13;;;;;;;1.95;1.10;;;;;;;;;;5092601;28;20174;-47
2021/01/22 11:45:39;;;;;;;2.80;1.50;;;;;;;;;;5090155;28;20565;-47
2021/01/22 11:48:05;;;;;;;1.45;1.00;;;;;;;;;;5081061;28;20179;-47
2021/01/22 11:50:31;;;;;;;0.98;0.90;;;;;;;;;;5082020;28;20426;-47
2021/01/22 11:52:57;;;;;;;2.88;1.20;;;;;;;;;;5074451;28;20224;-47
2021/01/22 11:55:23;;;;;;;5.05;3.05;;;;;;;;;;5085338;28;20268;-47
2021/01/22 11:57:49;;;;;;;8.00;3.67;;;;;;;;;;5090559;28;20667;-47
2021/01/22 12:00:15;;;;;;;89.18;40.63;;;;;;;;;;5092823;28;20181;-47
2021/01/22 12:02:41;;;;;;;360.13;168.95;;;;;;;;;;5082490;28;20574;-47
2021/01/22 12:05:08;;;;;;;492.17;273.40;;;;;;;;;;5083362;28;20224;-47
2021/01/22 12:07:34;;;;;;;569.55;340.33;;;;;;;;;;5083006;28;20193;-47
2021/01/22 12:10:00;;;;;;;608.10;364.23;;;;;;;;;;5074162;28;20273;-47
2021/01/22 12:12:27;;;;;;;622.10;378.30;;;;;;;;;;5083599;28;20193;-47
2021/01/22 12:14:54;;;;;;;646.20;391.75;;;;;;;;;;5086820;28;20498;-46
2021/01/22 12:17:20;;;;;;;609.05;378.55;;;;;;;;;;5080442;28;20194;-46
2021/01/22 12:19:46;;;;;;;607.63;372.17;;;;;;;;;;5102640;28;20445;-47
2021/01/22 12:22:12;;;;;;;585.67;363.00;;;;;;;;;;5100267;28;20189;-47
2021/01/22 12:24:38;;;;;;;589.10;360.25;;;;;;;;;;5082067;28;20565;-47
2021/01/22 12:27:05;;;;;;;556.00;343.38;;;;;;;;;;5093133;28;20239;-47
2021/01/22 12:29:31;;;;;;;554.38;337.15;;;;;;;;;;5096027;28;20181;-47
2021/01/22 12:31:57;;;;;;;549.00;328.00;;;;;;;;;;5092308;28;20198;-47
2021/01/22 12:34:24;;;;;;;523.22;320.60;;;;;;;;;;5082521;28;20196;-47
2021/01/22 12:36:50;;;;;;;516.20;308.48;;;;;;;;;;5095180;28;20293;-47
2021/01/22 12:39:16;;;;;;;504.23;303.95;;;;;;;;;;5075847;28;20601;-47
2021/01/22 12:41:42;;;;;;;479.00;289.13;;;;;;;;;;5075730;28;20209;-47
2021/01/22 12:44:08;;;;;;;459.55;269.77;;;;;;;;;;5076952;28;20218;-47
2021/01/22 12:46:34;;;;;;;451.23;255.55;;;;;;;;;;5075560;28;20265;-47
2021/01/22 12:49:00;;;;;;;431.58;244.15;;;;;;;;;;5087864;28;20289;-47
2021/01/22 12:51:26;;;;;;;406.23;222.65;;;;;;;;;;5094239;28;20197;-47
2021/01/22 12:53:52;;;;;;;348.08;179.10;;;;;;;;;;5075763;28;20190;-47
2021/01/22 12:56:18;;;;;;;300.40;153.48;;;;;;;;;;5074757;28;20273;-46
2021/01/22 12:58:44;;;;;;;294.60;146.63;;;;;;;;;;5090356;28;20178;-47
2021/01/22 13:01:10;;;;;;;282.67;144.27;;;;;;;;;;5095815;28;20186;-46
2021/01/22 13:03:36;;;;;;;280.33;140.00;;;;;;;;;;5095116;28;20192;-47
2021/01/22 13:06:02;;;;;;;264.77;134.02;;;;;;;;;;5074399;28;20178;-47
2021/01/22 13:08:28;;;;;;;259.75;130.82;;;;;;;;;;5088654;28;20193;-47
2021/01/22 13:10:54;;;;;;;246.13;124.13;;;;;;;;;;5095822;28;20222;-47
2021/01/22 13:13:20;;;;;;;237.52;121.35;;;;;;;;;;5094935;28;20197;-47
2021/01/22 13:15:46;;;;;;;212.15;111.13;;;;;;;;;;5076772;28;20577;-47
2021/01/22 13:18:12;;;;;;;200.30;98.75;;;;;;;;;;5076259;28;20206;-48
2021/01/22 13:20:38;;;;;;;183.13;94.88;;;;;;;;;;5095262;28;20612;-48
2021/01/22 13:23:04;;;;;;;174.30;89.43;;;;;;;;;;5075360;28;20265;-48
2021/01/22 13:25:30;;;;;;;173.68;88.55;;;;;;;;;;5089421;28;20204;-47
2021/01/22 13:27:56;;;;;;;184.50;90.75;;;;;;;;;;5090689;28;20565;-47
2021/01/22 13:30:22;;;;;;;176.30;87.40;;;;;;;;;;5095131;28;20190;-46
2021/01/22 13:32:48;;;;;;;161.25;80.90;;;;;;;;;;5095128;28;20200;-47
2021/01/22 13:35:14;;;;;;;160.90;80.05;;;;;;;;;;5076629;28;20194;-47
2021/01/22 13:37:40;;;;;;;159.27;78.72;;;;;;;;;;5079802;28;20613;-47
2021/01/22 13:40:07;;;;;;;153.57;77.13;;;;;;;;;;5094966;28;20185;-47
2021/01/22 13:42:33;;;;;;;138.50;71.07;;;;;;;;;;5085134;28;20610;-48
2021/01/22 13:44:59;;;;;;;145.93;70.00;;;;;;;;;;5087401;28;20192;-47
2021/01/22 13:47:25;;;;;;;131.88;66.18;;;;;;;;;;5091042;28;20185;-47
2021/01/22 13:49:51;;;;;;;132.82;66.43;;;;;;;;;;5089238;28;20182;-47
2021/01/22 13:52:17;;;;;;;124.85;63.28;;;;;;;;;;5092575;28;20268;-47
2021/01/22 13:54:43;;;;;;;121.60;61.08;;;;;;;;;;5082248;28;20257;-47
2021/01/22 13:57:09;;;;;;;119.03;57.63;;;;;;;;;;5075990;28;20571;-47
2021/01/22 13:59:35;;;;;;;124.28;58.25;;;;;;;;;;5075052;28;20206;-47
2021/01/22 14:02:01;;;;;;;116.85;56.60;;;;;;;;;;5074285;28;20269;-47
2021/01/22 14:04:28;;;;;;;110.38;56.55;;;;;;;;;;5082564;28;20272;-47
2021/01/22 14:06:54;;;;;;;110.55;55.65;;;;;;;;;;5094848;28;20226;-47
2021/01/22 14:09:20;;;;;;;105.05;53.33;;;;;;;;;;5093442;28;20190;-47
2021/01/22 14:11:46;;;;;;;105.47;52.08;;;;;;;;;;5076184;28;20525;-47
2021/01/22 14:14:12;;;;;;;99.60;50.28;;;;;;;;;;5080682;28;20221;-47
2021/01/22 14:16:38;;;;;;;105.38;50.45;;;;;;;;;;5092214;28;20289;-47
2021/01/22 14:19:04;;;;;;;99.32;48.95;;;;;;;;;;5074267;28;20218;-47
2021/01/22 14:21:30;;;;;;;102.00;49.60;;;;;;;;;;5096531;28;20262;-47
2021/01/22 14:23:56;;;;;;;99.90;48.05;;;;;;;;;;5089232;28;20181;-47
2021/01/22 14:26:22;;;;;;;100.88;46.72;;;;;;;;;;5073400;28;20183;-47
2021/01/22 14:28:48;;;;;;;87.60;44.25;;;;;;;;;;5074188;28;20187;-47
2021/01/22 14:31:14;;;;;;;93.70;44.05;;;;;;;;;;5087746;28;20186;-47
2021/01/22 14:33:40;;;;;;;77.43;42.47;;;;;;;;;;5091668;28;20183;-47
2021/01/22 14:36:06;;;;;;;76.22;42.40;;;;;;;;;;5074471;28;20616;-47